Almanor, California
Current Conditions -  °F | °C
As of 11:53 PM on Friday 19 Dec 2014 (Local Time) from KOVE Reporting Station
Haze Haze  
Wind Chill: 52°   Ceiling: 600
Heat Index: 52°   Visibility: 4mi
Dew Point: 50°   Wind: 7mph
Humidity: 93%   Direction: 130°SE
Pressure: 30.18"   Gusts: NA
Location:  40.1766°N, 120.882°W
Report Text: KOVE 200753Z AUTO 13006KT 4SM BR BKN006 OVC012 11/10 A3018 RMK AO2 CIG 003V009 SLP221 T01110100 401330106
Loading
Personal Weather Stations






























Interactive Weather Map New forecast layout! Learn more

10-Day Weather Forecast

Advertisements
Track Severe Weather on mobile